Time;durP1;ratioP1;P1;durP2;ratioP2;P2;SDS_P1;SDS_P2;PMS_P1;PMS_P2;Temp;Humidity;BMP_temperature;BMP_pressure;BME280_temperature;BME280_humidity;BME280_pressure;Samples;Min_cycle;Max_cycle;Signal;HPM_P1;HPM_P2
2022/06/11 00:00:20;;;;;;;;;;;27.40;58.30;;;;;;665099;29;1362;-94
2022/06/11 00:00:42;;;;;;;;;;;27.40;56.10;;;;;;665168;29;1185;-91
2022/06/11 00:01:02;;;;;;;;;;;27.30;57.20;;;;;;662042;29;1274;-93
2022/06/11 00:01:25;;;;;;;;;;;27.30;58.30;;;;;;663262;29;1193;-94
2022/06/11 00:01:47;;;;;;;;;;;27.20;55.60;;;;;;662498;29;1266;-94
2022/06/11 00:02:10;;;;;;;;;;;27.30;55.50;;;;;;665099;29;1249;-94
2022/06/11 00:02:30;;;;;;;;;;;27.20;56.60;;;;;;665155;29;1260;-93
2022/06/11 00:02:51;;;;;;;;;;;27.30;58.30;;;;;;666041;29;1212;-92
2022/06/11 00:03:12;;;;;;;;;;;27.30;55.00;;;;;;666440;29;1209;-94
2022/06/11 00:03:33;;;;;;;;;;;27.40;56.50;;;;;;664270;29;1200;-94
2022/06/11 00:03:55;;;;;;;;;;;27.30;59.00;;;;;;660215;29;1253;-93
2022/06/11 00:04:18;;;;;;;;;;;27.20;57.70;;;;;;663043;29;1362;-93
2022/06/11 00:04:41;;;;;;;;;;;27.30;56.10;;;;;;667348;29;1322;-93
2022/06/11 00:05:02;;;;;;;;;;;27.30;55.10;;;;;;668897;29;816;-93
2022/06/11 00:05:23;;;;;;;;;;;27.30;57.80;;;;;;668757;29;1216;-94
2022/06/11 00:05:43;;;;;;;;;;;27.30;57.00;;;;;;670188;29;1308;-94
2022/06/11 00:06:04;;;;;;;;;;;27.50;58.30;;;;;;669206;29;1390;-94
2022/06/11 00:06:26;;;;;;;;;;;27.20;57.50;;;;;;667126;29;832;-94
2022/06/11 00:06:48;;;;;;;;;;;27.30;56.00;;;;;;664922;29;1303;-94
2022/06/11 00:07:11;;;;;;;;;;;27.50;55.50;;;;;;667512;29;1201;-93
2022/06/11 00:07:31;;;;;;;;;;;27.30;54.90;;;;;;666839;29;1244;-94
2022/06/11 00:07:52;;;;;;;;;;;27.20;55.80;;;;;;668550;29;1308;-93
2022/06/11 00:08:13;;;;;;;;;;;27.40;57.60;;;;;;667362;29;1286;-92
2022/06/11 00:08:34;;;;;;;;;;;27.30;56.10;;;;;;664978;29;1216;-95
2022/06/11 00:08:54;;;;;;;;;;;26.20;56.10;;;;;;664600;29;1230;-92
2022/06/11 00:09:15;;;;;;;;;;;27.30;58.10;;;;;;662742;29;1230;-94
2022/06/11 00:09:37;;;;;;;;;;;27.40;55.30;;;;;;662125;29;1337;-94
2022/06/11 00:09:57;;;;;;;;;;;27.40;55.40;;;;;;663031;29;1135;-95
2022/06/11 00:10:18;;;;;;;;;;;27.30;57.40;;;;;;665463;29;1348;-93
2022/06/11 00:10:39;;;;;;;;;;;27.40;57.00;;;;;;670016;29;1252;-94
2022/06/11 00:10:59;;;;;;;;;;;27.30;57.50;;;;;;667515;29;1244;-93
2022/06/11 00:11:21;;;;;;;;;;;27.30;56.70;;;;;;664955;29;1214;-94
2022/06/11 00:11:42;;;;;;;;;;;27.40;55.20;;;;;;664643;29;1180;-93
2022/06/11 00:12:03;;;;;;;;;;;27.40;55.70;;;;;;662889;29;1229;-95
2022/06/11 00:12:26;;;;;;;;;;;27.40;55.20;;;;;;661840;29;1242;-93
2022/06/11 00:12:47;;;;;;;;;;;27.30;55.00;;;;;;660826;29;1303;-94
2022/06/11 00:13:07;;;;;;;;;;;27.30;55.40;;;;;;663212;29;1219;-90
2022/06/11 00:13:28;;;;;;;;;;;27.30;57.70;;;;;;665045;29;1321;-92
2022/06/11 00:13:49;;;;;;;;;;;27.30;56.00;;;;;;665238;29;817;-93
2022/06/11 00:14:10;;;;;;;;;;;27.40;57.60;;;;;;665147;29;872;-93
2022/06/11 00:14:31;;;;;;;;;;;27.40;55.10;;;;;;665214;29;1238;-93
2022/06/11 00:14:52;;;;;;;;;;;27.30;55.20;;;;;;665091;29;1225;-92
2022/06/11 00:15:13;;;;;;;;;;;27.40;57.00;;;;;;665079;29;1315;-93
2022/06/11 00:15:34;;;;;;;;;;;27.30;56.20;;;;;;667561;29;1331;-93
2022/06/11 00:15:55;;;;;;;;;;;27.30;56.90;;;;;;664985;29;1940;-91
2022/06/11 00:16:17;;;;;;;;;;;27.30;55.10;;;;;;664830;29;956;-92
2022/06/11 00:16:38;;;;;;;;;;;27.30;55.50;;;;;;665047;29;805;-94
2022/06/11 00:17:00;;;;;;;;;;;27.30;55.00;;;;;;668243;29;1507;-94
2022/06/11 00:17:21;;;;;;;;;;;27.30;55.00;;;;;;669101;29;1290;-92
2022/06/11 00:17:42;;;;;;;;;;;27.30;54.80;;;;;;668249;29;1154;-92
2022/06/11 00:18:04;;;;;;;;;;;27.30;55.80;;;;;;667573;29;1225;-94
2022/06/11 00:18:25;;;;;;;;;;;27.30;55.30;;;;;;667532;29;1255;-94
2022/06/11 00:18:46;;;;;;;;;;;27.30;55.70;;;;;;666874;29;1235;-94
2022/06/11 00:19:07;;;;;;;;;;;27.40;58.40;;;;;;667478;29;1313;-93
2022/06/11 00:19:28;;;;;;;;;;;27.20;57.60;;;;;;665067;29;1269;-92
2022/06/11 00:19:49;;;;;;;;;;;27.30;55.00;;;;;;667545;29;1394;-94
2022/06/11 00:20:10;;;;;;;;;;;27.40;55.00;;;;;;666958;29;1238;-93
2022/06/11 00:20:30;;;;;;;;;;;27.30;56.00;;;;;;667529;29;1313;-94
2022/06/11 00:20:51;;;;;;;;;;;27.40;57.60;;;;;;664563;29;1299;-91
2022/06/11 00:21:13;;;;;;;;;;;27.30;56.60;;;;;;660349;29;1190;-95
2022/06/11 00:21:35;;;;;;;;;;;27.30;55.70;;;;;;662043;29;1182;-93
2022/06/11 00:21:56;;;;;;;;;;;27.30;55.70;;;;;;660111;30;1373;-93
2022/06/11 00:22:17;;;;;;;;;;;27.30;55.60;;;;;;663117;29;1237;-93
2022/06/11 00:22:39;;;;;;;;;;;27.50;55.90;;;;;;662481;29;1246;-94
2022/06/11 00:22:59;;;;;;;;;;;27.20;55.20;;;;;;663426;29;1201;-93
2022/06/11 00:23:20;;;;;;;;;;;27.30;55.50;;;;;;664865;29;1320;-93
2022/06/11 00:23:42;;;;;;;;;;;27.30;55.70;;;;;;665579;29;1214;-93
2022/06/11 00:24:03;;;;;;;;;;;27.30;55.90;;;;;;664453;29;1331;-93
2022/06/11 00:24:25;;;;;;;;;;;27.30;55.80;;;;;;662928;29;1449;-93
2022/06/11 00:24:46;;;;;;;;;;;27.40;55.80;;;;;;663612;29;1200;-92
2022/06/11 00:25:07;;;;;;;;;;;27.40;55.70;;;;;;663131;29;1355;-93
2022/06/11 00:25:28;;;;;;;;;;;27.30;55.20;;;;;;661242;29;1270;-92
2022/06/11 00:25:48;;;;;;;;;;;27.30;58.70;;;;;;659809;29;1201;-94
2022/06/11 00:26:10;;;;;;;;;;;27.30;56.30;;;;;;661055;29;1225;-91
2022/06/11 00:26:30;;;;;;;;;;;27.10;54.90;;;;;;663185;29;794;-93
2022/06/11 00:26:52;;;;;;;;;;;27.20;59.50;;;;;;663029;29;1270;-93
2022/06/11 00:27:13;;;;;;;;;;;27.30;55.50;;;;;;663625;29;1123;-94
2022/06/11 00:27:34;;;;;;;;;;;27.20;56.10;;;;;;666013;29;1313;-93
2022/06/11 00:27:55;;;;;;;;;;;27.20;55.80;;;;;;665697;29;1213;-93
2022/06/11 00:28:15;;;;;;;;;;;27.30;57.90;;;;;;662333;29;1193;-93
2022/06/11 00:28:36;;;;;;;;;;;27.20;56.90;;;;;;663057;29;1213;-92
2022/06/11 00:28:57;;;;;;;;;;;27.40;55.60;;;;;;663967;29;1301;-93
2022/06/11 00:29:18;;;;;;;;;;;26.90;58.20;;;;;;665674;29;1268;-94
2022/06/11 00:29:40;;;;;;;;;;;27.30;55.70;;;;;;662978;29;1405;-94
2022/06/11 00:30:00;;;;;;;;;;;27.30;56.00;;;;;;663648;29;797;-92
2022/06/11 00:30:21;;;;;;;;;;;27.30;57.40;;;;;;665570;29;789;-94
2022/06/11 00:30:43;;;;;;;;;;;27.30;56.30;;;;;;665540;29;1212;-93
2022/06/11 00:31:04;;;;;;;;;;;27.20;59.30;;;;;;663620;29;1236;-93
2022/06/11 00:31:26;;;;;;;;;;;27.20;55.50;;;;;;663686;29;1455;-94
2022/06/11 00:31:47;;;;;;;;;;;27.20;55.20;;;;;;665495;29;1243;-94
2022/06/11 00:32:08;;;;;;;;;;;27.20;58.00;;;;;;665539;29;1373;-95
2022/06/11 00:32:29;;;;;;;;;;;27.20;54.90;;;;;;665595;29;1315;-94
2022/06/11 00:32:49;;;;;;;;;;;27.20;56.30;;;;;;663825;29;1180;-94
2022/06/11 00:33:10;;;;;;;;;;;27.20;57.40;;;;;;665111;29;1329;-93
2022/06/11 00:33:31;;;;;;;;;;;27.30;58.30;;;;;;660956;29;1237;-93
2022/06/11 00:33:52;;;;;;;;;;;27.50;58.00;;;;;;662716;29;1305;-93
2022/06/11 00:34:13;;;;;;;;;;;27.30;57.20;;;;;;663346;29;1249;-94
2022/06/11 00:34:39;;;;;;;;;;;27.20;55.30;;;;;;666103;29;1317;-91
2022/06/11 00:35:03;;;;;;;;;;;26.90;54.40;;;;;;667145;29;1290;-94
2022/06/11 00:35:24;;;;;;;;;;;27.20;57.70;;;;;;663080;29;1185;-93
2022/06/11 00:35:45;;;;;;;;;;;27.20;55.70;;;;;;662933;29;1888;-93
2022/06/11 00:36:06;;;;;;;;;;;27.20;55.90;;;;;;664586;29;809;-93
2022/06/11 00:36:27;;;;;;;;;;;27.20;56.70;;;;;;665505;29;1190;-94
2022/06/11 00:36:48;;;;;;;;;;;27.20;56.00;;;;;;664691;29;1292;-93
2022/06/11 00:37:10;;;;;;;;;;;27.20;55.20;;;;;;663813;29;1225;-93
2022/06/11 00:37:31;;;;;;;;;;;27.30;56.10;;;;;;666176;29;1087;-90
2022/06/11 00:37:52;;;;;;;;;;;27.20;56.50;;;;;;665549;29;1241;-92
2022/06/11 00:38:13;;;;;;;;;;;27.30;56.50;;;;;;665378;29;1213;-93
2022/06/11 00:38:35;;;;;;;;;;;27.30;56.80;;;;;;665553;29;1448;-93
2022/06/11 00:38:56;;;;;;;;;;;27.20;56.30;;;;;;665735;29;1403;-93
2022/06/11 00:39:19;;;;;;;;;;;27.20;58.40;;;;;;665631;29;814;-93
2022/06/11 00:39:39;;;;;;;;;;;27.20;55.80;;;;;;663919;29;1338;-93
2022/06/11 00:40:01;;;;;;;;;;;27.20;55.30;;;;;;664744;29;1283;-93
2022/06/11 00:40:24;;;;;;;;;;;27.30;56.00;;;;;;663841;29;1263;-93
2022/06/11 00:40:45;;;;;;;;;;;27.20;55.40;;;;;;663050;29;1331;-93
2022/06/11 00:41:07;;;;;;;;;;;27.20;55.50;;;;;;663082;29;1245;-92
2022/06/11 00:41:28;;;;;;;;;;;27.20;55.40;;;;;;662983;29;1463;-94
2022/06/11 00:41:50;;;;;;;;;;;27.20;55.80;;;;;;664865;29;1251;-93
2022/06/11 00:42:14;;;;;;;;;;;27.30;55.40;;;;;;664393;29;1281;-93
2022/06/11 00:42:35;;;;;;;;;;;27.30;55.50;;;;;;661700;29;1368;-93
2022/06/11 00:42:55;;;;;;;;;;;27.30;55.30;;;;;;664458;29;1393;-94
2022/06/11 00:43:17;;;;;;;;;;;27.20;56.10;;;;;;665549;29;1341;-92
2022/06/11 00:43:39;;;;;;;;;;;27.20;55.70;;;;;;665512;29;1243;-94
2022/06/11 00:43:59;;;;;;;;;;;27.30;55.90;;;;;;665715;29;1323;-94
2022/06/11 00:44:20;;;;;;;;;;;27.20;58.50;;;;;;665361;29;1286;-92
2022/06/11 00:44:41;;;;;;;;;;;27.20;57.40;;;;;;662937;29;1287;-92
2022/06/11 00:45:22;;;;;;;;;;;27.20;57.00;;;;;;662340;29;1539;-87
2022/06/11 00:45:46;;;;;;;;;;;27.20;54.80;;;;;;662951;29;1251;-94
2022/06/11 00:46:25;;;;;;;;;;;27.20;55.80;;;;;;661453;29;1251;-93
2022/06/11 00:46:49;;;;;;;;;;;27.20;54.80;;;;;;667886;29;1229;-93
2022/06/11 00:47:09;;;;;;;;;;;27.20;54.80;;;;;;668070;29;1373;-93
2022/06/11 00:47:30;;;;;;;;;;;27.20;56.50;;;;;;668081;29;1258;-93
2022/06/11 00:47:53;;;;;;;;;;;27.30;58.80;;;;;;667739;29;1270;-93
2022/06/11 00:48:27;;;;;;;;;;;27.20;55.70;;;;;;668145;29;1182;-91
2022/06/11 00:48:48;;;;;;;;;;;27.20;55.90;;;;;;667865;29;1352;-93
2022/06/11 00:49:16;;;;;;;;;;;27.20;56.40;;;;;;668082;29;1191;-93
2022/06/11 00:49:43;;;;;;;;;;;27.20;55.90;;;;;;667391;29;1335;-91
2022/06/11 00:50:39;;;;;;;;;;;27.20;54.80;;;;;;670535;29;1418;-89
2022/06/11 00:51:03;;;;;;;;;;;27.10;54.70;;;;;;665963;29;959;-91
2022/06/11 00:51:24;;;;;;;;;;;27.20;55.30;;;;;;666127;29;1308;-93
2022/06/11 00:51:45;;;;;;;;;;;27.20;55.50;;;;;;663484;30;1309;-92
2022/06/11 00:52:12;;;;;;;;;;;26.90;55.00;;;;;;663687;30;1296;-94
2022/06/11 00:52:36;;;;;;;;;;;27.20;54.80;;;;;;663394;30;1438;-88
2022/06/11 00:52:57;;;;;;;;;;;27.20;54.90;;;;;;663664;29;1303;-94
2022/06/11 00:53:24;;;;;;;;;;;27.20;55.90;;;;;;662107;30;1355;-95
2022/06/11 00:53:47;;;;;;;;;;;27.10;54.80;;;;;;665924;29;1337;-92
2022/06/11 00:54:11;;;;;;;;;;;27.20;54.60;;;;;;666065;29;1122;-88
2022/06/11 00:54:32;;;;;;;;;;;27.20;54.90;;;;;;666255;29;1189;-92
2022/06/11 00:55:11;;;;;;;;;;;27.20;55.10;;;;;;664240;29;1344;-94
2022/06/11 00:55:36;;;;;;;;;;;27.20;54.60;;;;;;663745;29;1286;-93
2022/06/11 00:55:58;;;;;;;;;;;27.10;55.60;;;;;;662799;29;1864;-91
2022/06/11 00:56:22;;;;;;;;;;;27.40;55.00;;;;;;663683;29;1198;-88
2022/06/11 00:56:45;;;;;;;;;;;27.10;55.50;;;;;;659846;30;1291;-93
2022/06/11 00:57:07;;;;;;;;;;;27.10;55.90;;;;;;660408;29;1401;-94
2022/06/11 00:57:30;;;;;;;;;;;27.10;55.60;;;;;;660687;30;1335;-95
2022/06/11 00:57:50;;;;;;;;;;;27.10;56.90;;;;;;660590;30;1385;-94
2022/06/11 00:58:14;;;;;;;;;;;27.10;55.70;;;;;;659101;30;1189;-93
2022/06/11 00:58:36;;;;;;;;;;;27.10;55.80;;;;;;659298;30;1333;-94
2022/06/11 00:58:59;;;;;;;;;;;27.10;55.40;;;;;;656901;30;1432;-95
2022/06/11 00:59:24;;;;;;;;;;;27.40;56.10;;;;;;657921;30;1335;-93
2022/06/11 00:59:50;;;;;;;;;;;27.10;55.50;;;;;;659472;30;1441;-95
2022/06/11 01:00:15;;;;;;;;;;;27.10;55.30;;;;;;662983;29;1209;-95
2022/06/11 01:00:41;;;;;;;;;;;27.10;55.40;;;;;;662847;29;1383;-95
2022/06/11 01:01:02;;;;;;;;;;;27.10;55.30;;;;;;662759;29;1237;-94
2022/06/11 01:01:24;;;;;;;;;;;27.10;55.30;;;;;;662871;29;1324;-94
2022/06/11 01:01:47;;;;;;;;;;;27.10;56.30;;;;;;660521;29;1256;-95
2022/06/11 01:02:08;;;;;;;;;;;27.10;57.30;;;;;;660277;30;1254;-93
2022/06/11 01:02:29;;;;;;;;;;;27.20;55.50;;;;;;657989;30;1446;-94
2022/06/11 01:02:49;;;;;;;;;;;27.10;58.30;;;;;;657992;30;1230;-95
2022/06/11 01:03:14;;;;;;;;;;;27.10;58.20;;;;;;657922;30;1205;-94
2022/06/11 01:03:37;;;;;;;;;;;27.10;54.80;;;;;;657843;30;1271;-92
2022/06/11 01:03:59;;;;;;;;;;;27.20;55.60;;;;;;658982;30;1329;-94
2022/06/11 01:04:31;;;;;;;;;;;27.10;55.10;;;;;;662882;29;1299;-95
2022/06/11 01:04:55;;;;;;;;;;;27.10;54.80;;;;;;662923;29;1271;-93
2022/06/11 01:05:18;;;;;;;;;;;27.10;55.90;;;;;;660501;29;1297;-92
2022/06/11 01:05:41;;;;;;;;;;;27.10;55.80;;;;;;660394;30;841;-95
2022/06/11 01:06:17;;;;;;;;;;;27.10;55.20;;;;;;657897;30;1340;-95
2022/06/11 01:06:38;;;;;;;;;;;25.40;53.60;;;;;;657923;30;1138;-94
2022/06/11 01:07:05;;;;;;;;;;;27.10;55.20;;;;;;658110;30;1476;-93
2022/06/11 01:07:25;;;;;;;;;;;27.10;55.80;;;;;;660353;30;1345;-93
2022/06/11 01:07:56;;;;;;;;;;;27.10;57.70;;;;;;660547;29;1327;-94
2022/06/11 01:08:28;;;;;;;;;;;25.70;55.00;;;;;;662822;29;1159;-94
2022/06/11 01:08:49;;;;;;;;;;;27.10;54.90;;;;;;662652;29;1387;-94
2022/06/11 01:09:24;;;;;;;;;;;27.10;57.50;;;;;;660264;29;1349;-94
2022/06/11 01:09:53;;;;;;;;;;;27.10;54.80;;;;;;657791;30;1277;-93
2022/06/11 01:10:25;;;;;;;;;;;27.10;54.70;;;;;;658355;29;1338;-95
2022/06/11 01:11:07;;;;;;;;;;;27.10;54.80;;;;;;655879;30;1127;-91
2022/06/11 01:11:43;;;;;;;;;;;27.10;54.80;;;;;;658077;30;1140;-95
2022/06/11 01:12:30;;;;;;;;;;;27.20;54.80;;;;;;662751;29;1170;-94
2022/06/11 01:12:57;;;;;;;;;;;27.20;54.90;;;;;;660308;30;1229;-93
2022/06/11 01:13:30;;;;;;;;;;;27.20;55.00;;;;;;660496;30;873;-94
2022/06/11 01:14:06;;;;;;;;;;;27.20;55.60;;;;;;660264;30;1262;-94
2022/06/11 01:14:44;;;;;;;;;;;27.20;54.70;;;;;;660387;30;1420;-92
2022/06/11 01:15:17;;;;;;;;;;;27.10;54.60;;;;;;660355;29;1372;-95
2022/06/11 01:15:37;;;;;;;;;;;27.10;54.50;;;;;;657880;30;1277;-94
2022/06/11 01:16:01;;;;;;;;;;;27.20;55.70;;;;;;657824;30;1972;-95
2022/06/11 01:16:29;;;;;;;;;;;27.20;55.60;;;;;;656180;30;1401;-94
2022/06/11 01:16:53;;;;;;;;;;;27.20;54.60;;;;;;655883;30;1358;-91
2022/06/11 01:17:25;;;;;;;;;;;27.20;54.70;;;;;;660194;30;1290;-89
2022/06/11 01:17:49;;;;;;;;;;;27.20;54.60;;;;;;662849;29;770;-92
2022/06/11 01:18:13;;;;;;;;;;;27.20;54.60;;;;;;661877;29;904;-94
2022/06/11 01:18:54;;;;;;;;;;;27.20;54.60;;;;;;660687;29;1147;-95
2022/06/11 01:19:34;;;;;;;;;;;27.20;54.70;;;;;;655359;30;1439;-90
2022/06/11 01:20:10;;;;;;;;;;;27.20;56.60;;;;;;657997;30;1277;-93
2022/06/11 01:20:41;;;;;;;;;;;27.20;54.70;;;;;;656186;30;1380;-94
2022/06/11 01:21:13;;;;;;;;;;;27.20;54.60;;;;;;657941;30;1334;-93
2022/06/11 01:21:43;;;;;;;;;;;27.20;54.60;;;;;;657752;30;1278;-92
2022/06/11 01:22:27;;;;;;;;;;;27.20;55.30;;;;;;657825;30;1396;-94
2022/06/11 01:23:06;;;;;;;;;;;27.20;54.60;;;;;;649856;30;1237;-93
2022/06/11 01:23:59;;;;;;;;;;;27.20;54.60;;;;;;652042;30;1211;-94
2022/06/11 01:24:40;;;;;;;;;;;27.20;54.60;;;;;;643235;30;1338;-94
2022/06/11 01:25:19;;;;;;;;;;;27.30;54.70;;;;;;643412;30;1260;-94
2022/06/11 01:26:07;;;;;;;;;;;27.20;54.60;;;;;;650499;30;1241;-93
2022/06/11 01:26:41;;;;;;;;;;;27.20;54.60;;;;;;645623;30;1534;-94
2022/06/11 01:27:20;;;;;;;;;;;24.70;52.90;;;;;;643426;30;1355;-89
2022/06/11 01:28:07;;;;;;;;;;;27.20;54.60;;;;;;648378;30;1284;-93
2022/06/11 01:28:44;;;;;;;;;;;27.20;54.60;;;;;;643587;30;1220;-90
2022/06/11 01:29:11;;;;;;;;;;;27.20;55.70;;;;;;643838;30;1337;-90
2022/06/11 01:29:40;;;;;;;;;;;27.20;54.60;;;;;;648339;30;838;-94
2022/06/11 01:30:04;;;;;;;;;;;27.20;54.60;;;;;;648193;30;1316;-93
2022/06/11 01:30:27;;;;;;;;;;;27.20;54.60;;;;;;646806;30;1200;-93
2022/06/11 01:30:54;;;;;;;;;;;27.20;55.70;;;;;;645937;30;1096;-92
2022/06/11 01:31:22;;;;;;;;;;;27.30;54.70;;;;;;650494;30;1180;-93
2022/06/11 01:31:50;;;;;;;;;;;27.30;54.70;;;;;;650567;30;1299;-93
2022/06/11 01:32:32;;;;;;;;;;;27.20;54.60;;;;;;650520;30;1168;-92
2022/06/11 01:33:00;;;;;;;;;;;27.20;54.60;;;;;;650558;30;1284;-94
2022/06/11 01:33:31;;;;;;;;;;;27.20;54.50;;;;;;650430;30;1240;-93
2022/06/11 01:33:52;;;;;;;;;;;27.20;54.40;;;;;;652958;30;1204;-93
2022/06/11 01:34:21;;;;;;;;;;;27.20;56.90;;;;;;653011;30;1191;-93
2022/06/11 01:35:00;;;;;;;;;;;27.10;54.60;;;;;;651963;30;1238;-93
2022/06/11 01:35:22;;;;;;;;;;;27.20;54.60;;;;;;650707;30;1437;-94
2022/06/11 01:35:45;;;;;;;;;;;27.30;58.00;;;;;;651606;30;1239;-93
2022/06/11 01:36:08;;;;;;;;;;;27.20;59.60;;;;;;652653;30;1386;-93
2022/06/11 01:36:40;;;;;;;;;;;27.30;54.70;;;;;;652898;30;1361;-93
2022/06/11 01:37:03;;;;;;;;;;;27.20;54.60;;;;;;653031;30;1283;-93
2022/06/11 01:37:27;;;;;;;;;;;27.20;56.10;;;;;;653031;30;1223;-93
2022/06/11 01:38:03;;;;;;;;;;;26.90;55.10;;;;;;652834;30;1246;-90
2022/06/11 01:38:43;;;;;;;;;;;27.20;54.60;;;;;;653049;30;1263;-93
2022/06/11 01:39:22;;;;;;;;;;;27.20;55.10;;;;;;652788;30;1235;-93
2022/06/11 01:39:48;;;;;;;;;;;26.30;53.90;;;;;;651169;30;1331;-93
2022/06/11 01:40:20;;;;;;;;;;;27.20;54.60;;;;;;653023;30;1327;-94
2022/06/11 01:40:59;;;;;;;;;;;27.20;55.30;;;;;;652928;30;1331;-93
2022/06/11 01:41:28;;;;;;;;;;;27.20;54.60;;;;;;652893;30;1234;-93
2022/06/11 01:41:54;;;;;;;;;;;27.20;54.60;;;;;;652989;30;1384;-94
2022/06/11 01:42:19;;;;;;;;;;;27.20;54.60;;;;;;652982;30;1334;-93
2022/06/11 01:42:51;;;;;;;;;;;27.30;55.70;;;;;;650912;30;1285;-93
2022/06/11 01:43:14;;;;;;;;;;;27.30;54.70;;;;;;652906;30;1320;-94
2022/06/11 01:43:41;;;;;;;;;;;27.10;55.10;;;;;;652124;30;1243;-93
2022/06/11 01:44:04;;;;;;;;;;;27.20;55.80;;;;;;652295;30;1374;-93
2022/06/11 01:44:35;;;;;;;;;;;27.20;56.10;;;;;;653008;30;1334;-93
2022/06/11 01:45:05;;;;;;;;;;;27.10;54.50;;;;;;652599;30;1312;-93
2022/06/11 01:45:31;;;;;;;;;;;27.20;54.60;;;;;;652991;30;1344;-94
2022/06/11 01:45:52;;;;;;;;;;;27.30;55.70;;;;;;651907;30;1302;-94
2022/06/11 01:46:17;;;;;;;;;;;27.10;55.00;;;;;;652070;30;1390;-91
2022/06/11 01:46:42;;;;;;;;;;;27.20;56.00;;;;;;650620;30;830;-94
2022/06/11 01:47:04;;;;;;;;;;;27.20;54.60;;;;;;652960;30;1279;-94
2022/06/11 01:47:24;;;;;;;;;;;27.20;55.80;;;;;;650799;30;1248;-93
2022/06/11 01:47:46;;;;;;;;;;;27.20;56.10;;;;;;652931;30;1164;-94
2022/06/11 01:48:10;;;;;;;;;;;27.20;56.00;;;;;;651446;30;1365;-93
2022/06/11 01:48:30;;;;;;;;;;;27.10;55.80;;;;;;653148;30;1377;-93
2022/06/11 01:48:57;;;;;;;;;;;27.20;55.80;;;;;;652142;30;834;-94
2022/06/11 01:49:20;;;;;;;;;;;27.20;54.60;;;;;;652978;30;1118;-93
2022/06/11 01:49:43;;;;;;;;;;;27.10;54.60;;;;;;651064;30;1242;-93
2022/06/11 01:50:06;;;;;;;;;;;27.20;55.70;;;;;;652517;30;1466;-93
2022/06/11 01:50:28;;;;;;;;;;;27.10;55.30;;;;;;648715;30;1394;-93
2022/06/11 01:51:05;;;;;;;;;;;27.10;56.60;;;;;;650476;30;1332;-94
2022/06/11 01:51:29;;;;;;;;;;;27.20;54.60;;;;;;650722;30;1235;-94
2022/06/11 01:51:56;;;;;;;;;;;27.20;55.30;;;;;;652512;30;1350;-92
2022/06/11 01:52:17;;;;;;;;;;;27.20;54.60;;;;;;652909;30;1334;-93
2022/06/11 01:52:53;;;;;;;;;;;27.20;56.50;;;;;;651973;30;1343;-93
2022/06/11 01:53:14;;;;;;;;;;;27.10;54.60;;;;;;650842;30;873;-93
2022/06/11 01:53:38;;;;;;;;;;;27.20;55.00;;;;;;650848;30;1347;-94
2022/06/11 01:54:21;;;;;;;;;;;27.20;55.90;;;;;;651361;30;1318;-94
2022/06/11 01:54:45;;;;;;;;;;;27.20;54.60;;;;;;653615;30;1258;-93
2022/06/11 01:55:11;;;;;;;;;;;27.20;54.60;;;;;;653654;30;1274;-91
2022/06/11 01:55:52;;;;;;;;;;;27.20;54.60;;;;;;651686;30;1247;-91
2022/06/11 01:56:19;;;;;;;;;;;27.20;54.60;;;;;;651057;30;1327;-93
2022/06/11 01:56:45;;;;;;;;;;;27.20;55.30;;;;;;649718;30;1236;-93
2022/06/11 01:57:06;;;;;;;;;;;27.10;54.50;;;;;;653814;30;1406;-94
2022/06/11 01:57:34;;;;;;;;;;;27.10;58.50;;;;;;656155;30;1514;-88
2022/06/11 01:57:54;;;;;;;;;;;27.10;54.50;;;;;;658359;30;821;-93
2022/06/11 01:58:33;;;;;;;;;;;27.10;56.60;;;;;;658627;30;1206;-94
2022/06/11 01:59:11;;;;;;;;;;;27.10;54.50;;;;;;657789;30;1277;-94
2022/06/11 01:59:32;;;;;;;;;;;27.10;54.50;;;;;;655570;30;842;-91
2022/06/11 02:00:00;;;;;;;;;;;27.10;55.70;;;;;;655457;30;900;-89
2022/06/11 02:00:32;;;;;;;;;;;27.10;54.80;;;;;;655401;30;1388;-94
2022/06/11 02:01:12;;;;;;;;;;;27.10;54.50;;;;;;661734;29;1274;-93
2022/06/11 02:01:39;;;;;;;;;;;27.10;54.50;;;;;;665310;29;1312;-93
2022/06/11 02:02:05;;;;;;;;;;;26.60;55.10;;;;;;665421;29;1255;-94
2022/06/11 02:02:28;;;;;;;;;;;26.30;54.00;;;;;;665494;29;1222;-93
2022/06/11 02:02:54;;;;;;;;;;;27.10;54.50;;;;;;665359;29;1410;-94
2022/06/11 02:03:17;;;;;;;;;;;27.10;55.60;;;;;;665516;29;1361;-94
2022/06/11 02:03:43;;;;;;;;;;;27.20;54.60;;;;;;665418;29;1404;-94
2022/06/11 02:04:09;;;;;;;;;;;27.20;55.50;;;;;;665339;29;1456;-93
2022/06/11 02:04:30;;;;;;;;;;;27.10;56.80;;;;;;665601;29;1358;-94
2022/06/11 02:05:13;;;;;;;;;;;27.10;55.60;;;;;;665378;29;1242;-92
2022/06/11 02:05:52;;;;;;;;;;;27.10;54.50;;;;;;657733;30;1119;-92
2022/06/11 02:06:13;;;;;;;;;;;27.10;54.50;;;;;;657980;29;1162;-93
2022/06/11 02:06:41;;;;;;;;;;;27.00;56.60;;;;;;659869;29;1371;-93
2022/06/11 02:07:02;;;;;;;;;;;27.10;55.10;;;;;;655354;30;1211;-91
2022/06/11 02:07:32;;;;;;;;;;;27.10;56.00;;;;;;658046;29;1348;-93
2022/06/11 02:07:52;;;;;;;;;;;27.10;54.50;;;;;;657905;29;1361;-92
2022/06/11 02:08:25;;;;;;;;;;;27.00;57.50;;;;;;655460;29;1496;-92
2022/06/11 02:08:54;;;;;;;;;;;27.10;54.50;;;;;;658096;29;1281;-93
2022/06/11 02:09:33;;;;;;;;;;;27.10;54.60;;;;;;658942;29;1163;-90
2022/06/11 02:10:04;;;;;;;;;;;27.10;54.50;;;;;;657967;29;1412;-93
2022/06/11 02:10:25;;;;;;;;;;;27.10;54.50;;;;;;657909;30;1375;-93
2022/06/11 02:10:54;;;;;;;;;;;27.10;56.30;;;;;;655515;29;1209;-94
2022/06/11 02:11:23;;;;;;;;;;;27.10;54.50;;;;;;657590;29;1218;-94
2022/06/11 02:11:46;;;;;;;;;;;27.00;54.50;;;;;;656747;30;1309;-94
2022/06/11 02:12:28;;;;;;;;;;;27.10;55.90;;;;;;655286;30;1230;-94
2022/06/11 02:12:51;;;;;;;;;;;27.10;55.10;;;;;;657641;30;1350;-93
2022/06/11 02:13:24;;;;;;;;;;;27.10;54.50;;;;;;658376;29;1403;-92
2022/06/11 02:13:52;;;;;;;;;;;27.10;54.50;;;;;;658036;30;1202;-94
2022/06/11 02:14:49;;;;;;;;;;;27.10;54.90;;;;;;660338;30;1341;-93
2022/06/11 02:15:18;;;;;;;;;;;27.00;54.50;;;;;;658222;30;882;-92
2022/06/11 02:15:43;;;;;;;;;;;27.10;54.50;;;;;;658645;29;1231;-93
2022/06/11 02:16:08;;;;;;;;;;;27.10;54.80;;;;;;655259;30;1991;-93
2022/06/11 02:16:46;;;;;;;;;;;27.00;56.30;;;;;;655456;30;1337;-94
2022/06/11 02:17:12;;;;;;;;;;;27.00;54.50;;;;;;657725;30;1246;-94
2022/06/11 02:17:37;;;;;;;;;;;27.00;54.40;;;;;;656460;30;1292;-93
2022/06/11 02:18:00;;;;;;;;;;;27.10;54.50;;;;;;656872;30;1206;-93
2022/06/11 02:18:23;;;;;;;;;;;27.10;55.70;;;;;;655266;29;1379;-93
2022/06/11 02:18:45;;;;;;;;;;;27.00;55.20;;;;;;657892;29;1230;-95
2022/06/11 02:19:08;;;;;;;;;;;27.00;55.60;;;;;;655596;29;1334;-92
2022/06/11 02:19:34;;;;;;;;;;;27.10;54.80;;;;;;656022;29;1432;-95
2022/06/11 02:19:55;;;;;;;;;;;27.00;54.50;;;;;;657500;29;1392;-94
2022/06/11 02:20:42;;;;;;;;;;;27.00;57.50;;;;;;659360;29;1233;-90
2022/06/11 02:21:09;;;;;;;;;;;27.00;54.50;;;;;;657512;29;1328;-95
2022/06/11 02:21:33;;;;;;;;;;;27.00;54.50;;;;;;657808;30;1334;-95
2022/06/11 02:22:06;;;;;;;;;;;27.10;55.50;;;;;;655430;29;1300;-94
2022/06/11 02:22:30;;;;;;;;;;;27.20;54.60;;;;;;655545;29;1293;-93
2022/06/11 02:22:53;;;;;;;;;;;27.40;55.70;;;;;;656989;29;1239;-94
2022/06/11 02:23:16;;;;;;;;;;;25.80;55.50;;;;;;655241;29;1430;-94
2022/06/11 02:23:42;;;;;;;;;;;27.00;55.40;;;;;;655344;29;1229;-94
2022/06/11 02:24:05;;;;;;;;;;;27.00;54.50;;;;;;655412;30;1339;-94
2022/06/11 02:24:28;;;;;;;;;;;27.00;54.50;;;;;;657709;29;1227;-95
2022/06/11 02:24:52;;;;;;;;;;;27.10;55.30;;;;;;655681;29;1233;-95
2022/06/11 02:25:26;;;;;;;;;;;26.70;54.90;;;;;;655287;29;1236;-94
2022/06/11 02:25:49;;;;;;;;;;;27.00;54.50;;;;;;658255;29;1189;-94
2022/06/11 02:26:14;;;;;;;;;;;27.00;55.50;;;;;;659964;30;1285;-94
2022/06/11 02:26:39;;;;;;;;;;;25.70;54.80;;;;;;657807;30;1294;-93
2022/06/11 02:27:02;;;;;;;;;;;27.00;54.50;;;;;;657973;30;766;-93
2022/06/11 02:27:24;;;;;;;;;;;27.10;55.90;;;;;;657755;30;1363;-94
2022/06/11 02:27:46;;;;;;;;;;;27.10;54.90;;;;;;658172;29;1213;-94
2022/06/11 02:28:10;;;;;;;;;;;27.00;55.30;;;;;;658268;29;1234;-95
2022/06/11 02:28:33;;;;;;;;;;;27.10;55.60;;;;;;658480;29;1312;-95
2022/06/11 02:28:54;;;;;;;;;;;27.00;55.50;;;;;;657818;30;1359;-93
2022/06/11 02:29:17;;;;;;;;;;;27.00;55.30;;;;;;659193;30;1120;-94
2022/06/11 02:29:39;;;;;;;;;;;27.10;54.80;;;;;;658768;30;1557;-95
2022/06/11 02:30:00;;;;;;;;;;;27.10;55.80;;;;;;657898;30;1337;-93
2022/06/11 02:30:22;;;;;;;;;;;27.10;55.10;;;;;;656641;29;1270;-93
2022/06/11 02:30:44;;;;;;;;;;;27.00;54.90;;;;;;655287;30;1081;-95
2022/06/11 02:31:07;;;;;;;;;;;27.00;55.50;;;;;;657837;29;1298;-93
2022/06/11 02:31:29;;;;;;;;;;;27.10;55.80;;;;;;659169;29;1201;-95
2022/06/11 02:31:53;;;;;;;;;;;27.10;55.60;;;;;;659112;29;1251;-94
2022/06/11 02:32:16;;;;;;;;;;;27.10;57.10;;;;;;658718;30;1202;-91
2022/06/11 02:32:37;;;;;;;;;;;27.00;55.30;;;;;;655312;29;1230;-92
2022/06/11 02:32:58;;;;;;;;;;;26.20;56.30;;;;;;656474;30;1170;-95
2022/06/11 02:33:19;;;;;;;;;;;25.30;53.90;;;;;;654107;30;1027;-94